sensor_id;sensor_type;location;lat;lon;timestamp;temperature;humidity
62555;DHT22;48610;52.144;8.624;2022-10-31T00:01:00;15.30;99.90
62555;DHT22;48610;52.144;8.624;2022-10-31T00:04:02;15.20;99.90
62555;DHT22;48610;52.144;8.624;2022-10-31T00:07:02;15.30;99.90
62555;DHT22;48610;52.144;8.624;2022-10-31T00:10:03;15.20;99.90
62555;DHT22;48610;52.144;8.624;2022-10-31T00:13:05;15.10;99.90
62555;DHT22;48610;52.144;8.624;2022-10-31T00:16:16;15.00;99.90
62555;DHT22;48610;52.144;8.624;2022-10-31T00:19:17;14.90;99.90
62555;DHT22;48610;52.144;8.624;2022-10-31T00:22:17;14.70;99.90
62555;DHT22;48610;52.144;8.624;2022-10-31T00:25:18;14.60;99.90
62555;DHT22;48610;52.144;8.624;2022-10-31T00:28:18;14.50;99.90
62555;DHT22;48610;52.144;8.624;2022-10-31T00:31:19;14.30;99.90
62555;DHT22;48610;52.144;8.624;2022-10-31T00:34:20;14.10;99.90
62555;DHT22;48610;52.144;8.624;2022-10-31T00:37:20;13.90;99.90
62555;DHT22;48610;52.144;8.624;2022-10-31T00:40:21;13.80;99.90
62555;DHT22;48610;52.144;8.624;2022-10-31T00:43:22;13.70;99.90
62555;DHT22;48610;52.144;8.624;2022-10-31T00:46:22;13.30;99.90
62555;DHT22;48610;52.144;8.624;2022-10-31T00:49:23;13.10;99.90
62555;DHT22;48610;52.144;8.624;2022-10-31T00:52:23;13.10;99.90
62555;DHT22;48610;52.144;8.624;2022-10-31T00:55:24;13.20;99.90
62555;DHT22;48610;52.144;8.624;2022-10-31T00:58:25;13.10;99.90
62555;DHT22;48610;52.144;8.624;2022-10-31T01:01:25;13.20;99.90
62555;DHT22;48610;52.144;8.624;2022-10-31T01:04:26;13.20;99.90
62555;DHT22;48610;52.144;8.624;2022-10-31T01:07:26;13.20;99.90
62555;DHT22;48610;52.144;8.624;2022-10-31T01:10:27;13.10;99.90
62555;DHT22;48610;52.144;8.624;2022-10-31T01:13:27;13.10;99.90
62555;DHT22;48610;52.144;8.624;2022-10-31T01:16:28;12.80;99.90
62555;DHT22;48610;52.144;8.624;2022-10-31T01:19:30;12.60;99.90
62555;DHT22;48610;52.144;8.624;2022-10-31T01:22:30;12.50;99.90
62555;DHT22;48610;52.144;8.624;2022-10-31T01:25:31;12.50;99.90
62555;DHT22;48610;52.144;8.624;2022-10-31T01:28:32;12.50;99.90
62555;DHT22;48610;52.144;8.624;2022-10-31T01:31:37;12.60;99.90
62555;DHT22;48610;52.144;8.624;2022-10-31T01:34:37;12.60;99.90
62555;DHT22;48610;52.144;8.624;2022-10-31T01:37:38;12.60;99.90
62555;DHT22;48610;52.144;8.624;2022-10-31T01:40:38;12.60;99.90
62555;DHT22;48610;52.144;8.624;2022-10-31T01:46:45;12.50;99.90
62555;DHT22;48610;52.144;8.624;2022-10-31T01:49:53;12.50;99.90
62555;DHT22;48610;52.144;8.624;2022-10-31T01:52:55;12.50;99.90
62555;DHT22;48610;52.144;8.624;2022-10-31T01:55:55;12.40;99.90
62555;DHT22;48610;52.144;8.624;2022-10-31T01:58:57;12.40;99.90
62555;DHT22;48610;52.144;8.624;2022-10-31T02:01:59;12.30;99.90
62555;DHT22;48610;52.144;8.624;2022-10-31T02:05:02;12.30;99.90
62555;DHT22;48610;52.144;8.624;2022-10-31T02:11:11;12.00;99.90
62555;DHT22;48610;52.144;8.624;2022-10-31T02:14:13;12.00;99.90
62555;DHT22;48610;52.144;8.624;2022-10-31T02:17:14;12.00;99.90
62555;DHT22;48610;52.144;8.624;2022-10-31T02:20:17;12.00;99.90
62555;DHT22;48610;52.144;8.624;2022-10-31T02:33:27;11.90;99.90
62555;DHT22;48610;52.144;8.624;2022-10-31T02:40:08;12.00;99.90
62555;DHT22;48610;52.144;8.624;2022-10-31T02:43:35;12.00;99.90
62555;DHT22;48610;52.144;8.624;2022-10-31T02:46:50;12.00;99.90
62555;DHT22;48610;52.144;8.624;2022-10-31T02:50:00;12.10;99.90
62555;DHT22;48610;52.144;8.624;2022-10-31T02:53:03;12.00;99.90
62555;DHT22;48610;52.144;8.624;2022-10-31T02:56:14;12.00;99.90
62555;DHT22;48610;52.144;8.624;2022-10-31T02:59:15;12.00;99.90
62555;DHT22;48610;52.144;8.624;2022-10-31T03:02:38;12.00;99.90
62555;DHT22;48610;52.144;8.624;2022-10-31T03:06:09;11.90;99.90
62555;DHT22;48610;52.144;8.624;2022-10-31T03:09:33;11.80;99.90
62555;DHT22;48610;52.144;8.624;2022-10-31T03:19:10;11.90;99.90
62555;DHT22;48610;52.144;8.624;2022-10-31T03:22:23;11.90;99.90
62555;DHT22;48610;52.144;8.624;2022-10-31T03:25:26;12.00;99.90
62555;DHT22;48610;52.144;8.624;2022-10-31T03:28:30;12.00;99.90
62555;DHT22;48610;52.144;8.624;2022-10-31T03:31:43;12.00;99.90
62555;DHT22;48610;52.144;8.624;2022-10-31T03:34:46;12.10;99.90
62555;DHT22;48610;52.144;8.624;2022-10-31T03:37:49;12.10;99.90
62555;DHT22;48610;52.144;8.624;2022-10-31T03:40:53;11.80;99.90
62555;DHT22;48610;52.144;8.624;2022-10-31T03:43:59;11.80;99.90
62555;DHT22;48610;52.144;8.624;2022-10-31T03:47:02;11.90;99.90
62555;DHT22;48610;52.144;8.624;2022-10-31T03:50:06;11.90;99.90
62555;DHT22;48610;52.144;8.624;2022-10-31T03:57:04;11.30;99.90
62555;DHT22;48610;52.144;8.624;2022-10-31T04:00:08;11.20;99.90
62555;DHT22;48610;52.144;8.624;2022-10-31T04:06:14;11.20;99.90
62555;DHT22;48610;52.144;8.624;2022-10-31T04:09:18;11.30;99.90
62555;DHT22;48610;52.144;8.624;2022-10-31T04:12:20;11.40;99.90
62555;DHT22;48610;52.144;8.624;2022-10-31T04:15:23;11.40;99.90
62555;DHT22;48610;52.144;8.624;2022-10-31T04:18:26;11.40;99.90
62555;DHT22;48610;52.144;8.624;2022-10-31T04:21:28;11.40;99.90
62555;DHT22;48610;52.144;8.624;2022-10-31T04:24:29;11.40;99.90
62555;DHT22;48610;52.144;8.624;2022-10-31T04:27:29;11.50;99.90
62555;DHT22;48610;52.144;8.624;2022-10-31T04:30:30;11.50;99.90
62555;DHT22;48610;52.144;8.624;2022-10-31T04:33:31;11.50;99.90
62555;DHT22;48610;52.144;8.624;2022-10-31T04:36:31;11.60;99.90
62555;DHT22;48610;52.144;8.624;2022-10-31T04:39:32;11.60;99.90
62555;DHT22;48610;52.144;8.624;2022-10-31T04:42:32;11.70;99.90
62555;DHT22;48610;52.144;8.624;2022-10-31T04:45:33;11.70;99.90
62555;DHT22;48610;52.144;8.624;2022-10-31T04:48:34;11.60;99.90
62555;DHT22;48610;52.144;8.624;2022-10-31T04:51:34;11.50;99.90
62555;DHT22;48610;52.144;8.624;2022-10-31T04:54:35;11.40;99.90
62555;DHT22;48610;52.144;8.624;2022-10-31T04:57:47;11.10;99.90
62555;DHT22;48610;52.144;8.624;2022-10-31T05:00:51;11.00;99.90
62555;DHT22;48610;52.144;8.624;2022-10-31T05:03:52;10.90;99.90
62555;DHT22;48610;52.144;8.624;2022-10-31T05:06:52;10.90;99.90
62555;DHT22;48610;52.144;8.624;2022-10-31T05:09:53;10.90;99.90
62555;DHT22;48610;52.144;8.624;2022-10-31T05:12:56;11.00;99.90
62555;DHT22;48610;52.144;8.624;2022-10-31T05:15:57;10.90;99.90
62555;DHT22;48610;52.144;8.624;2022-10-31T05:18:58;11.00;99.90
62555;DHT22;48610;52.144;8.624;2022-10-31T05:21:58;11.10;99.90
62555;DHT22;48610;52.144;8.624;2022-10-31T05:24:59;11.10;99.90
62555;DHT22;48610;52.144;8.624;2022-10-31T05:27:59;11.10;99.90
62555;DHT22;48610;52.144;8.624;2022-10-31T05:31:00;11.00;99.90
62555;DHT22;48610;52.144;8.624;2022-10-31T05:34:00;11.00;99.90
62555;DHT22;48610;52.144;8.624;2022-10-31T05:37:01;11.00;99.90
62555;DHT22;48610;52.144;8.624;2022-10-31T05:40:03;11.00;99.90
62555;DHT22;48610;52.144;8.624;2022-10-31T05:43:04;11.00;99.90
62555;DHT22;48610;52.144;8.624;2022-10-31T05:46:04;11.00;99.90
62555;DHT22;48610;52.144;8.624;2022-10-31T05:49:05;10.90;99.90
62555;DHT22;48610;52.144;8.624;2022-10-31T05:52:05;11.00;99.90
62555;DHT22;48610;52.144;8.624;2022-10-31T05:55:06;11.00;99.90
62555;DHT22;48610;52.144;8.624;2022-10-31T05:58:07;10.90;99.90
62555;DHT22;48610;52.144;8.624;2022-10-31T06:01:07;10.70;99.90
62555;DHT22;48610;52.144;8.624;2022-10-31T06:04:08;10.60;99.90
62555;DHT22;48610;52.144;8.624;2022-10-31T06:07:08;10.60;99.90
62555;DHT22;48610;52.144;8.624;2022-10-31T06:10:09;10.50;99.90
62555;DHT22;48610;52.144;8.624;2022-10-31T06:13:10;10.50;99.90
62555;DHT22;48610;52.144;8.624;2022-10-31T06:16:11;10.40;99.90
62555;DHT22;48610;52.144;8.624;2022-10-31T06:19:11;10.40;99.90
62555;DHT22;48610;52.144;8.624;2022-10-31T06:22:12;10.50;99.90
62555;DHT22;48610;52.144;8.624;2022-10-31T06:25:13;10.60;99.90
62555;DHT22;48610;52.144;8.624;2022-10-31T06:28:13;10.50;99.90
62555;DHT22;48610;52.144;8.624;2022-10-31T06:31:14;10.50;99.90
62555;DHT22;48610;52.144;8.624;2022-10-31T06:34:14;10.40;99.90
62555;DHT22;48610;52.144;8.624;2022-10-31T06:37:15;10.20;99.90
62555;DHT22;48610;52.144;8.624;2022-10-31T06:40:16;10.00;99.90
62555;DHT22;48610;52.144;8.624;2022-10-31T06:43:17;10.00;99.90
62555;DHT22;48610;52.144;8.624;2022-10-31T06:46:17;10.30;99.90
62555;DHT22;48610;52.144;8.624;2022-10-31T06:49:18;10.50;99.90
62555;DHT22;48610;52.144;8.624;2022-10-31T06:52:18;10.70;99.90
62555;DHT22;48610;52.144;8.624;2022-10-31T06:55:20;10.80;99.90
62555;DHT22;48610;52.144;8.624;2022-10-31T06:58:24;11.00;99.90
62555;DHT22;48610;52.144;8.624;2022-10-31T07:01:25;11.30;99.90
62555;DHT22;48610;52.144;8.624;2022-10-31T07:04:26;11.40;99.90
62555;DHT22;48610;52.144;8.624;2022-10-31T07:07:27;11.30;99.90
62555;DHT22;48610;52.144;8.624;2022-10-31T07:10:29;10.90;99.90
62555;DHT22;48610;52.144;8.624;2022-10-31T07:13:30;10.70;99.90
62555;DHT22;48610;52.144;8.624;2022-10-31T07:16:31;10.60;99.90
62555;DHT22;48610;52.144;8.624;2022-10-31T07:19:32;10.50;99.90
62555;DHT22;48610;52.144;8.624;2022-10-31T07:22:34;10.60;99.90
62555;DHT22;48610;52.144;8.624;2022-10-31T07:25:35;10.80;99.90
62555;DHT22;48610;52.144;8.624;2022-10-31T07:28:35;10.90;99.90
62555;DHT22;48610;52.144;8.624;2022-10-31T07:31:36;11.00;99.90
62555;DHT22;48610;52.144;8.624;2022-10-31T07:34:36;11.00;99.90
62555;DHT22;48610;52.144;8.624;2022-10-31T07:37:37;11.20;99.90
62555;DHT22;48610;52.144;8.624;2022-10-31T07:40:39;11.30;99.90
62555;DHT22;48610;52.144;8.624;2022-10-31T07:43:39;11.50;99.90
62555;DHT22;48610;52.144;8.624;2022-10-31T07:46:40;11.90;99.90
62555;DHT22;48610;52.144;8.624;2022-10-31T07:49:41;12.10;99.90
62555;DHT22;48610;52.144;8.624;2022-10-31T07:52:41;12.30;99.90
62555;DHT22;48610;52.144;8.624;2022-10-31T07:55:43;12.60;99.90
62555;DHT22;48610;52.144;8.624;2022-10-31T07:58:43;12.60;99.90
62555;DHT22;48610;52.144;8.624;2022-10-31T08:01:44;12.80;99.90
62555;DHT22;48610;52.144;8.624;2022-10-31T08:04:45;13.00;99.90
62555;DHT22;48610;52.144;8.624;2022-10-31T08:07:45;13.20;99.90
62555;DHT22;48610;52.144;8.624;2022-10-31T08:10:46;13.30;99.90
62555;DHT22;48610;52.144;8.624;2022-10-31T08:13:46;13.60;99.90
62555;DHT22;48610;52.144;8.624;2022-10-31T08:16:47;13.70;99.90
62555;DHT22;48610;52.144;8.624;2022-10-31T08:19:48;13.70;99.90
62555;DHT22;48610;52.144;8.624;2022-10-31T08:23:00;14.00;99.90
62555;DHT22;48610;52.144;8.624;2022-10-31T08:26:00;14.10;99.90
62555;DHT22;48610;52.144;8.624;2022-10-31T08:29:01;14.40;99.90
62555;DHT22;48610;52.144;8.624;2022-10-31T08:32:02;14.60;99.90
62555;DHT22;48610;52.144;8.624;2022-10-31T08:35:03;14.70;99.90
62555;DHT22;48610;52.144;8.624;2022-10-31T08:38:04;14.60;99.90
62555;DHT22;48610;52.144;8.624;2022-10-31T08:41:05;14.70;99.90
62555;DHT22;48610;52.144;8.624;2022-10-31T08:44:05;14.30;99.90
62555;DHT22;48610;52.144;8.624;2022-10-31T08:47:06;14.00;99.90
62555;DHT22;48610;52.144;8.624;2022-10-31T08:50:07;14.10;99.90
62555;DHT22;48610;52.144;8.624;2022-10-31T08:53:16;14.00;99.90
62555;DHT22;48610;52.144;8.624;2022-10-31T08:56:16;14.10;99.90
62555;DHT22;48610;52.144;8.624;2022-10-31T08:59:17;14.40;99.90
62555;DHT22;48610;52.144;8.624;2022-10-31T09:02:17;14.60;99.90
62555;DHT22;48610;52.144;8.624;2022-10-31T09:05:18;14.50;99.90
62555;DHT22;48610;52.144;8.624;2022-10-31T09:08:18;14.50;99.90
62555;DHT22;48610;52.144;8.624;2022-10-31T09:11:19;14.70;99.90
62555;DHT22;48610;52.144;8.624;2022-10-31T09:14:20;14.80;99.90
62555;DHT22;48610;52.144;8.624;2022-10-31T09:17:20;14.90;99.90
62555;DHT22;48610;52.144;8.624;2022-10-31T09:20:21;15.00;99.90
62555;DHT22;48610;52.144;8.624;2022-10-31T09:23:22;15.30;99.90
62555;DHT22;48610;52.144;8.624;2022-10-31T09:26:23;15.40;99.90
62555;DHT22;48610;52.144;8.624;2022-10-31T09:29:24;15.30;99.90
62555;DHT22;48610;52.144;8.624;2022-10-31T09:32:24;15.10;99.90
62555;DHT22;48610;52.144;8.624;2022-10-31T09:35:25;15.00;99.90
62555;DHT22;48610;52.144;8.624;2022-10-31T09:38:26;14.90;99.90
62555;DHT22;48610;52.144;8.624;2022-10-31T09:48:36;14.90;99.90
62555;DHT22;48610;52.144;8.624;2022-10-31T09:51:32;15.00;99.90
62555;DHT22;48610;52.144;8.624;2022-10-31T09:58:24;15.10;99.90
62555;DHT22;48610;52.144;8.624;2022-10-31T10:01:30;15.30;99.90
62555;DHT22;48610;52.144;8.624;2022-10-31T10:07:56;15.50;99.90
62555;DHT22;48610;52.144;8.624;2022-10-31T10:21:31;15.80;99.90
62555;DHT22;48610;52.144;8.624;2022-10-31T10:31:03;16.10;99.90
62555;DHT22;48610;52.144;8.624;2022-10-31T10:40:20;16.50;99.90
62555;DHT22;48610;52.144;8.624;2022-10-31T10:43:26;16.50;99.90
62555;DHT22;48610;52.144;8.624;2022-10-31T10:46:43;16.60;99.90
62555;DHT22;48610;52.144;8.624;2022-10-31T10:50:31;16.80;99.90
62555;DHT22;48610;52.144;8.624;2022-10-31T10:53:43;17.00;99.90
62555;DHT22;48610;52.144;8.624;2022-10-31T11:03:22;17.30;99.90
62555;DHT22;48610;52.144;8.624;2022-10-31T11:06:23;17.30;99.90
62555;DHT22;48610;52.144;8.624;2022-10-31T11:09:26;17.20;99.90
62555;DHT22;48610;52.144;8.624;2022-10-31T11:12:33;17.30;99.90
62555;DHT22;48610;52.144;8.624;2022-10-31T11:15:37;17.40;99.90
62555;DHT22;48610;52.144;8.624;2022-10-31T11:18:45;17.60;99.90
62555;DHT22;48610;52.144;8.624;2022-10-31T11:21:47;17.60;99.90
62555;DHT22;48610;52.144;8.624;2022-10-31T11:24:48;17.90;99.90
62555;DHT22;48610;52.144;8.624;2022-10-31T11:28:07;18.30;99.90
62555;DHT22;48610;52.144;8.624;2022-10-31T11:31:12;18.40;99.90
62555;DHT22;48610;52.144;8.624;2022-10-31T11:34:23;18.90;99.90
62555;DHT22;48610;52.144;8.624;2022-10-31T11:37:28;18.90;99.90
62555;DHT22;48610;52.144;8.624;2022-10-31T11:40:29;19.10;99.90
62555;DHT22;48610;52.144;8.624;2022-10-31T11:43:30;19.20;99.90
62555;DHT22;48610;52.144;8.624;2022-10-31T11:46:37;19.10;99.90
62555;DHT22;48610;52.144;8.624;2022-10-31T11:49:43;18.90;99.90
62555;DHT22;48610;52.144;8.624;2022-10-31T11:52:44;19.00;99.90
62555;DHT22;48610;52.144;8.624;2022-10-31T11:56:03;19.10;99.90
62555;DHT22;48610;52.144;8.624;2022-10-31T11:59:12;18.80;99.90
62555;DHT22;48610;52.144;8.624;2022-10-31T12:02:18;18.10;99.90
62555;DHT22;48610;52.144;8.624;2022-10-31T12:05:27;17.90;99.90
62555;DHT22;48610;52.144;8.624;2022-10-31T12:08:37;17.80;99.90
62555;DHT22;48610;52.144;8.624;2022-10-31T12:25:10;17.70;99.90
62555;DHT22;48610;52.144;8.624;2022-10-31T12:28:22;17.80;99.90
62555;DHT22;48610;52.144;8.624;2022-10-31T12:31:48;17.80;99.90
62555;DHT22;48610;52.144;8.624;2022-10-31T12:52:14;18.60;99.90
62555;DHT22;48610;52.144;8.624;2022-10-31T12:58:21;18.70;99.90
62555;DHT22;48610;52.144;8.624;2022-10-31T13:01:38;18.70;99.90
62555;DHT22;48610;52.144;8.624;2022-10-31T13:07:52;18.60;99.90
62555;DHT22;48610;52.144;8.624;2022-10-31T13:12:07;18.40;99.90
62555;DHT22;48610;52.144;8.624;2022-10-31T13:14:43;18.30;99.90
62555;DHT22;48610;52.144;8.624;2022-10-31T13:17:48;18.30;99.90
62555;DHT22;48610;52.144;8.624;2022-10-31T13:20:50;18.20;99.90
62555;DHT22;48610;52.144;8.624;2022-10-31T13:23:51;18.20;99.90
62555;DHT22;48610;52.144;8.624;2022-10-31T13:26:55;18.30;99.90
62555;DHT22;48610;52.144;8.624;2022-10-31T13:30:02;18.30;99.90
62555;DHT22;48610;52.144;8.624;2022-10-31T13:33:29;18.30;99.90
62555;DHT22;48610;52.144;8.624;2022-10-31T13:37:04;18.40;99.90
62555;DHT22;48610;52.144;8.624;2022-10-31T13:43:26;18.50;99.90
62555;DHT22;48610;52.144;8.624;2022-10-31T13:52:33;18.50;99.90
62555;DHT22;48610;52.144;8.624;2022-10-31T13:55:42;18.60;99.90
62555;DHT22;48610;52.144;8.624;2022-10-31T13:59:14;18.70;99.90
62555;DHT22;48610;52.144;8.624;2022-10-31T14:02:26;18.70;99.90
62555;DHT22;48610;52.144;8.624;2022-10-31T14:05:37;18.60;99.90
62555;DHT22;48610;52.144;8.624;2022-10-31T14:08:41;18.70;99.90
62555;DHT22;48610;52.144;8.624;2022-10-31T14:11:48;18.60;99.90
62555;DHT22;48610;52.144;8.624;2022-10-31T14:14:52;18.70;99.90
62555;DHT22;48610;52.144;8.624;2022-10-31T14:17:57;18.60;99.90
62555;DHT22;48610;52.144;8.624;2022-10-31T14:20:59;18.50;99.90
62555;DHT22;48610;52.144;8.624;2022-10-31T14:23:59;18.50;99.90
62555;DHT22;48610;52.144;8.624;2022-10-31T14:27:03;18.40;99.90
62555;DHT22;48610;52.144;8.624;2022-10-31T14:30:14;18.30;99.90
62555;DHT22;48610;52.144;8.624;2022-10-31T14:33:18;18.20;99.90
62555;DHT22;48610;52.144;8.624;2022-10-31T14:46:17;17.90;99.90
62555;DHT22;48610;52.144;8.624;2022-10-31T14:50:20;17.80;99.90
62555;DHT22;48610;52.144;8.624;2022-10-31T14:52:57;17.70;99.90
62555;DHT22;48610;52.144;8.624;2022-10-31T14:56:00;17.70;99.90
62555;DHT22;48610;52.144;8.624;2022-10-31T14:59:07;17.60;99.90
62555;DHT22;48610;52.144;8.624;2022-10-31T15:02:14;17.50;99.90
62555;DHT22;48610;52.144;8.624;2022-10-31T15:05:16;17.40;99.90
62555;DHT22;48610;52.144;8.624;2022-10-31T15:08:33;17.40;99.90
62555;DHT22;48610;52.144;8.624;2022-10-31T15:11:37;17.40;99.90
62555;DHT22;48610;52.144;8.624;2022-10-31T15:14:38;17.30;99.90
62555;DHT22;48610;52.144;8.624;2022-10-31T15:17:44;17.20;99.90
62555;DHT22;48610;52.144;8.624;2022-10-31T15:20:45;17.10;99.90
62555;DHT22;48610;52.144;8.624;2022-10-31T15:23:47;17.20;99.90
62555;DHT22;48610;52.144;8.624;2022-10-31T15:26:50;17.10;99.90
62555;DHT22;48610;52.144;8.624;2022-10-31T15:29:54;17.10;99.90
62555;DHT22;48610;52.144;8.624;2022-10-31T15:32:54;17.00;99.90
62555;DHT22;48610;52.144;8.624;2022-10-31T15:35:57;17.00;99.90
62555;DHT22;48610;52.144;8.624;2022-10-31T15:38:58;17.00;99.90
62555;DHT22;48610;52.144;8.624;2022-10-31T15:41:59;17.00;99.90
62555;DHT22;48610;52.144;8.624;2022-10-31T15:48:22;17.00;99.90
62555;DHT22;48610;52.144;8.624;2022-10-31T15:51:28;16.90;99.90
62555;DHT22;48610;52.144;8.624;2022-10-31T15:54:30;16.90;99.90
62555;DHT22;48610;52.144;8.624;2022-10-31T15:57:32;17.00;99.90
62555;DHT22;48610;52.144;8.624;2022-10-31T16:00:35;17.00;99.90
62555;DHT22;48610;52.144;8.624;2022-10-31T16:03:37;17.00;99.90
62555;DHT22;48610;52.144;8.624;2022-10-31T16:06:38;17.00;99.90
62555;DHT22;48610;52.144;8.624;2022-10-31T16:09:55;17.00;99.90
62555;DHT22;48610;52.144;8.624;2022-10-31T16:12:56;16.90;99.90
62555;DHT22;48610;52.144;8.624;2022-10-31T16:16:12;16.90;99.90
62555;DHT22;48610;52.144;8.624;2022-10-31T16:19:19;16.80;99.90
62555;DHT22;48610;52.144;8.624;2022-10-31T16:22:24;16.90;99.90
62555;DHT22;48610;52.144;8.624;2022-10-31T16:25:29;16.90;99.90
62555;DHT22;48610;52.144;8.624;2022-10-31T16:28:36;16.70;99.90
62555;DHT22;48610;52.144;8.624;2022-10-31T16:31:39;16.60;99.90
62555;DHT22;48610;52.144;8.624;2022-10-31T16:34:40;16.60;99.90
62555;DHT22;48610;52.144;8.624;2022-10-31T16:37:41;16.50;99.90
62555;DHT22;48610;52.144;8.624;2022-10-31T16:40:42;16.60;99.90
62555;DHT22;48610;52.144;8.624;2022-10-31T16:43:43;16.50;99.90
62555;DHT22;48610;52.144;8.624;2022-10-31T16:46:44;16.40;99.90
62555;DHT22;48610;52.144;8.624;2022-10-31T16:49:47;16.30;99.90
62555;DHT22;48610;52.144;8.624;2022-10-31T16:52:49;16.30;99.90
62555;DHT22;48610;52.144;8.624;2022-10-31T16:56:02;16.30;99.90
62555;DHT22;48610;52.144;8.624;2022-10-31T16:59:05;16.40;99.90
62555;DHT22;48610;52.144;8.624;2022-10-31T17:02:15;16.40;99.90
62555;DHT22;48610;52.144;8.624;2022-10-31T17:05:17;16.30;99.90
62555;DHT22;48610;52.144;8.624;2022-10-31T17:08:18;16.20;99.90
62555;DHT22;48610;52.144;8.624;2022-10-31T17:11:22;16.20;99.90
62555;DHT22;48610;52.144;8.624;2022-10-31T17:14:23;16.20;99.90
62555;DHT22;48610;52.144;8.624;2022-10-31T17:17:24;16.20;99.90
62555;DHT22;48610;52.144;8.624;2022-10-31T17:20:27;16.30;99.90
62555;DHT22;48610;52.144;8.624;2022-10-31T17:23:28;16.40;99.90
62555;DHT22;48610;52.144;8.624;2022-10-31T17:26:29;16.30;99.90
62555;DHT22;48610;52.144;8.624;2022-10-31T17:29:30;16.20;99.90
62555;DHT22;48610;52.144;8.624;2022-10-31T17:32:30;16.20;99.90
62555;DHT22;48610;52.144;8.624;2022-10-31T17:35:31;16.30;99.90
62555;DHT22;48610;52.144;8.624;2022-10-31T17:38:32;16.30;99.90
62555;DHT22;48610;52.144;8.624;2022-10-31T17:41:32;16.20;99.90
62555;DHT22;48610;52.144;8.624;2022-10-31T17:44:33;16.20;99.90
62555;DHT22;48610;52.144;8.624;2022-10-31T17:47:34;16.20;99.90
62555;DHT22;48610;52.144;8.624;2022-10-31T17:50:35;16.30;99.90
62555;DHT22;48610;52.144;8.624;2022-10-31T17:53:36;16.20;99.90
62555;DHT22;48610;52.144;8.624;2022-10-31T17:56:36;16.20;99.90
62555;DHT22;48610;52.144;8.624;2022-10-31T17:59:37;16.10;99.90
62555;DHT22;48610;52.144;8.624;2022-10-31T18:02:38;16.20;99.90
62555;DHT22;48610;52.144;8.624;2022-10-31T18:05:38;16.10;99.90
62555;DHT22;48610;52.144;8.624;2022-10-31T18:08:39;16.10;99.90
62555;DHT22;48610;52.144;8.624;2022-10-31T18:11:40;16.20;99.90
62555;DHT22;48610;52.144;8.624;2022-10-31T18:14:41;16.20;99.90
62555;DHT22;48610;52.144;8.624;2022-10-31T18:17:42;16.20;99.90
62555;DHT22;48610;52.144;8.624;2022-10-31T18:20:43;16.20;99.90
62555;DHT22;48610;52.144;8.624;2022-10-31T18:23:43;16.10;99.90
62555;DHT22;48610;52.144;8.624;2022-10-31T18:26:44;16.10;99.90
62555;DHT22;48610;52.144;8.624;2022-10-31T18:29:44;16.20;99.90
62555;DHT22;48610;52.144;8.624;2022-10-31T18:32:48;16.10;99.90
62555;DHT22;48610;52.144;8.624;2022-10-31T18:35:50;16.10;99.90
62555;DHT22;48610;52.144;8.624;2022-10-31T18:38:50;16.10;99.90
62555;DHT22;48610;52.144;8.624;2022-10-31T18:41:51;16.00;99.90
62555;DHT22;48610;52.144;8.624;2022-10-31T18:44:54;16.10;99.90
62555;DHT22;48610;52.144;8.624;2022-10-31T18:47:54;16.20;99.90
62555;DHT22;48610;52.144;8.624;2022-10-31T18:54:03;16.10;99.90
62555;DHT22;48610;52.144;8.624;2022-10-31T18:57:04;16.10;99.90
62555;DHT22;48610;52.144;8.624;2022-10-31T19:00:05;16.10;99.90
62555;DHT22;48610;52.144;8.624;2022-10-31T19:03:06;16.00;99.90
62555;DHT22;48610;52.144;8.624;2022-10-31T19:06:07;16.10;99.90
62555;DHT22;48610;52.144;8.624;2022-10-31T19:09:09;16.00;99.90
62555;DHT22;48610;52.144;8.624;2022-10-31T19:12:09;16.00;99.90
62555;DHT22;48610;52.144;8.624;2022-10-31T19:15:10;16.00;99.90
62555;DHT22;48610;52.144;8.624;2022-10-31T19:18:10;16.00;99.90
62555;DHT22;48610;52.144;8.624;2022-10-31T19:21:13;15.80;99.90
62555;DHT22;48610;52.144;8.624;2022-10-31T19:24:14;15.70;99.90
62555;DHT22;48610;52.144;8.624;2022-10-31T19:27:14;15.80;99.90
62555;DHT22;48610;52.144;8.624;2022-10-31T19:30:15;15.80;99.90
62555;DHT22;48610;52.144;8.624;2022-10-31T19:33:16;15.70;99.90
62555;DHT22;48610;52.144;8.624;2022-10-31T19:36:18;15.80;99.90
62555;DHT22;48610;52.144;8.624;2022-10-31T19:39:19;15.80;99.90
62555;DHT22;48610;52.144;8.624;2022-10-31T19:42:19;15.80;99.90
62555;DHT22;48610;52.144;8.624;2022-10-31T19:45:20;15.80;99.90
62555;DHT22;48610;52.144;8.624;2022-10-31T19:48:20;15.90;99.90
62555;DHT22;48610;52.144;8.624;2022-10-31T19:51:21;15.90;99.90
62555;DHT22;48610;52.144;8.624;2022-10-31T19:54:22;15.90;99.90
62555;DHT22;48610;52.144;8.624;2022-10-31T19:57:22;16.00;99.90
62555;DHT22;48610;52.144;8.624;2022-10-31T20:00:23;16.00;99.90
62555;DHT22;48610;52.144;8.624;2022-10-31T20:03:24;16.00;99.90
62555;DHT22;48610;52.144;8.624;2022-10-31T20:06:32;15.90;99.90
62555;DHT22;48610;52.144;8.624;2022-10-31T20:09:33;16.10;99.90
62555;DHT22;48610;52.144;8.624;2022-10-31T20:12:33;16.00;99.90
62555;DHT22;48610;52.144;8.624;2022-10-31T20:15:34;15.90;99.90
62555;DHT22;48610;52.144;8.624;2022-10-31T20:18:36;15.80;99.90
62555;DHT22;48610;52.144;8.624;2022-10-31T20:21:38;16.00;99.90
62555;DHT22;48610;52.144;8.624;2022-10-31T20:24:39;16.00;99.90
62555;DHT22;48610;52.144;8.624;2022-10-31T20:27:40;16.00;99.90
62555;DHT22;48610;52.144;8.624;2022-10-31T20:30:41;16.00;99.90
62555;DHT22;48610;52.144;8.624;2022-10-31T20:33:41;16.10;99.90
62555;DHT22;48610;52.144;8.624;2022-10-31T20:36:42;16.00;99.90
62555;DHT22;48610;52.144;8.624;2022-10-31T20:39:43;15.80;99.90
62555;DHT22;48610;52.144;8.624;2022-10-31T20:42:43;15.80;99.90
62555;DHT22;48610;52.144;8.624;2022-10-31T20:45:44;15.70;99.90
62555;DHT22;48610;52.144;8.624;2022-10-31T20:48:45;15.80;99.90
62555;DHT22;48610;52.144;8.624;2022-10-31T20:51:46;15.80;99.90
62555;DHT22;48610;52.144;8.624;2022-10-31T20:54:46;15.70;99.90
62555;DHT22;48610;52.144;8.624;2022-10-31T20:57:47;15.70;99.90
62555;DHT22;48610;52.144;8.624;2022-10-31T21:00:47;15.50;99.90
62555;DHT22;48610;52.144;8.624;2022-10-31T21:03:49;15.40;99.90
62555;DHT22;48610;52.144;8.624;2022-10-31T21:06:49;15.40;99.90
62555;DHT22;48610;52.144;8.624;2022-10-31T21:09:50;15.50;99.90
62555;DHT22;48610;52.144;8.624;2022-10-31T21:12:51;15.60;99.90
62555;DHT22;48610;52.144;8.624;2022-10-31T21:16:02;15.50;99.90
62555;DHT22;48610;52.144;8.624;2022-10-31T21:19:04;15.50;99.90
62555;DHT22;48610;52.144;8.624;2022-10-31T21:22:04;15.50;99.90
62555;DHT22;48610;52.144;8.624;2022-10-31T21:25:05;15.60;99.90
62555;DHT22;48610;52.144;8.624;2022-10-31T21:28:07;15.60;99.90
62555;DHT22;48610;52.144;8.624;2022-10-31T21:31:09;15.60;99.90
62555;DHT22;48610;52.144;8.624;2022-10-31T21:34:13;15.60;99.90
62555;DHT22;48610;52.144;8.624;2022-10-31T21:37:14;15.60;99.90